Time;durP1;ratioP1;P1;durP2;ratioP2;P2;SDS_P1;SDS_P2;PMS_P1;PMS_P2;Temp;Humidity;BMP_temperature;BMP_pressure;BME280_temperature;BME280_humidity;BME280_pressure;Samples;Min_cycle;Max_cycle;Signal;HPM_P1;HPM_P2
2023/03/01 16:41:48;;;;;;;7.40;4.00;;;;;;;1.52;75.34;100260.05;102567;1298;631955;-73
2023/03/01 16:44:15;;;;;;;6.90;4.10;;;;;;;1.44;74.99;100258.05;104825;1275;60843;-75
2023/03/01 16:46:43;;;;;;;7.40;5.00;;;;;;;1.40;75.36;100264.06;104625;1270;61644;-74
2023/03/01 16:49:10;;;;;;;6.40;4.50;;;;;;;1.36;75.44;100267.05;104835;1270;72233;-79
2023/03/01 16:51:37;;;;;;;5.10;3.60;;;;;;;1.30;75.40;100263.79;104700;1274;67976;-71
2023/03/01 16:54:04;;;;;;;7.40;4.70;;;;;;;1.25;75.62;100266.45;104394;1269;650992;-72
2023/03/01 16:56:34;;;;;;;8.60;4.80;;;;;;;1.20;75.78;100267.38;104819;1270;61498;-74
2023/03/01 16:59:01;;;;;;;6.90;4.70;;;;;;;1.14;75.97;100269.84;104884;1267;62218;-79
2023/03/01 17:01:34;;;;;;;7.10;5.10;;;;;;;1.09;76.05;100268.84;104739;1275;73511;-79
2023/03/01 17:04:01;;;;;;;7.80;4.50;;;;;;;1.04;76.20;100270.33;105563;1266;68721;-82
2023/03/01 17:06:28;;;;;;;10.40;5.30;;;;;;;0.99;76.43;100270.02;105430;1265;72011;-79
2023/03/01 17:08:56;;;;;;;14.70;7.30;;;;;;;0.94;76.55;100270.78;105453;1265;61082;-82
2023/03/01 17:11:28;;;;;;;15.80;8.10;;;;;;;0.89;76.99;100272.06;105445;1260;59566;-87
2023/03/01 17:13:55;;;;;;;15.70;9.50;;;;;;;0.86;77.18;100273.56;106050;1260;74571;-84
2023/03/01 17:16:23;;;;;;;25.60;10.30;;;;;;;0.87;77.40;100274.73;105365;1260;68765;-80
2023/03/01 17:18:50;;;;;;;14.90;9.00;;;;;;;0.89;77.41;100271.14;105427;1261;72246;-81
2023/03/01 17:21:20;;;;;;;15.50;9.00;;;;;;;0.91;77.60;100275.86;105295;1260;59708;-76
2023/03/01 17:23:49;;;;;;;9.80;6.30;;;;;;;0.90;77.59;100271.90;105608;1261;62105;-79
2023/03/01 17:26:18;;;;;;;12.00;5.80;;;;;;;0.88;77.76;100272.98;105369;1267;73639;-73
2023/03/01 17:28:50;;;;;;;9.30;6.00;;;;;;;0.85;77.53;100274.92;105635;1262;68077;-72
2023/03/01 17:31:18;;;;;;;10.50;5.40;;;;;;;0.80;77.66;100273.56;105538;1260;73428;-68
2023/03/01 17:33:45;;;;;;;9.80;5.00;;;;;;;0.75;77.86;100271.48;105155;1264;59526;-68
2023/03/01 17:36:13;;;;;;;13.40;6.50;;;;;;;0.71;78.00;100269.17;105243;1261;60206;-69
2023/03/01 17:38:42;;;;;;;11.60;6.40;;;;;;;0.65;78.01;100266.94;104781;1266;74497;-69
2023/03/01 17:41:11;;;;;;;8.20;5.40;;;;;;;0.60;77.93;100271.06;105038;1261;67457;-67
2023/03/01 17:43:38;;;;;;;17.60;12.30;;;;;;;0.55;78.01;100270.81;105467;1261;72994;-71
2023/03/01 17:46:04;;;;;;;13.80;7.00;;;;;;;0.49;77.93;100273.02;105638;1262;60580;-76
2023/03/01 17:48:31;;;;;;;9.00;5.30;;;;;;;0.44;77.82;100271.61;105308;1259;62108;-73
2023/03/01 17:51:18;;;;;;;8.40;5.70;;;;;;;0.41;77.79;100275.38;105451;1259;74861;-72
2023/03/01 17:53:45;;;;;;;9.30;5.70;;;;;;;0.40;77.55;100275.60;105328;1260;67688;-72
2023/03/01 17:56:12;;;;;;;11.60;5.60;;;;;;;0.41;77.50;100275.70;105552;1263;72145;-72
2023/03/01 17:58:38;;;;;;;9.00;5.90;;;;;;;0.42;77.59;100274.34;105343;1260;61390;-72
2023/03/01 18:01:12;;;;;;;11.30;6.40;;;;;;;0.41;77.46;100267.92;105305;1260;62001;-71
2023/03/01 18:03:40;;;;;;;10.50;6.40;;;;;;;0.38;77.62;100266.64;105432;1267;71759;-74
2023/03/01 18:06:18;;;;;;;14.00;8.00;;;;;;;0.35;77.77;100272.10;105403;1260;66751;-73
2023/03/01 18:08:46;;;;;;;11.40;6.90;;;;;;;0.31;77.83;100277.81;105421;1260;74570;-70
2023/03/01 18:11:13;;;;;;;11.80;6.90;;;;;;;0.27;78.10;100282.69;105223;1260;60378;-75
2023/03/01 18:13:42;;;;;;;12.20;6.80;;;;;;;0.22;78.33;100284.70;105405;1260;60643;-73
2023/03/01 18:16:11;;;;;;;13.90;6.80;;;;;;;0.17;78.52;100292.33;105329;1266;73873;-74
2023/03/01 18:18:39;;;;;;;10.70;5.90;;;;;;;0.12;78.76;100293.77;105486;1266;68609;-76
2023/03/01 18:21:06;;;;;;;12.70;7.10;;;;;;;0.09;78.83;100293.06;105420;1257;73397;-75
2023/03/01 18:23:34;;;;;;;15.30;6.70;;;;;;;0.07;79.08;100294.69;105572;1262;61020;-74
2023/03/01 18:26:03;;;;;;;8.80;5.30;;;;;;;0.08;79.29;100296.34;105596;1257;60599;-75
2023/03/01 18:28:31;;;;;;;10.80;6.40;;;;;;;0.10;79.21;100298.37;105538;1257;73519;-73
2023/03/01 18:31:09;;;;;;;13.10;5.30;;;;;;;0.11;79.23;100299.66;105657;1263;69460;-75
2023/03/01 18:33:38;;;;;;;11.80;6.10;;;;;;;0.11;79.15;100299.98;105766;1259;74897;-75
2023/03/01 18:36:12;;;;;;;10.80;7.10;;;;;;;0.10;79.26;100302.20;105554;1256;59924;-73
2023/03/01 18:38:39;;;;;;;9.20;6.40;;;;;;;0.08;79.39;100302.69;105573;1262;59837;-72
2023/03/01 18:41:06;;;;;;;17.90;6.90;;;;;;;0.05;79.45;100302.45;105500;1257;72081;-75
2023/03/01 18:43:34;;;;;;;14.30;6.70;;;;;;;0.02;79.54;100306.52;105765;1257;67568;-73
2023/03/01 18:46:04;;;;;;;13.10;6.50;;;;;;;-0.02;79.65;100307.45;105724;1259;74440;-73
2023/03/01 18:48:32;;;;;;;19.70;9.40;;;;;;;-0.06;79.58;100312.81;105848;1259;61869;-73
2023/03/01 18:51:07;;;;;;;16.10;6.40;;;;;;;-0.09;79.93;100311.68;105745;1260;61324;-73
2023/03/01 18:53:34;;;;;;;16.40;7.80;;;;;;;-0.09;80.11;100314.03;105642;1257;75267;-75
2023/03/01 18:56:01;;;;;;;13.00;7.20;;;;;;;-0.08;80.09;100312.67;105703;1257;68253;-74
2023/03/01 18:58:28;;;;;;;18.00;7.70;;;;;;;-0.06;80.05;100311.18;105532;1263;74963;-76
2023/03/01 19:00:55;;;;;;;14.40;8.20;;;;;;;-0.04;80.01;100314.87;103408;1257;1004988;-78
2023/03/01 19:03:22;;;;;;;12.90;7.60;;;;;;;-0.03;79.74;100316.20;105575;1256;60127;-72
2023/03/01 19:05:48;;;;;;;16.70;9.10;;;;;;;-0.05;79.69;100321.10;105621;1257;72729;-74
2023/03/01 19:08:16;;;;;;;11.50;7.00;;;;;;;-0.08;79.44;100317.89;104208;1257;1004601;-70
2023/03/01 19:10:44;;;;;;;13.30;8.50;;;;;;;-0.10;79.38;100320.12;105730;1260;74354;-70
2023/03/01 19:13:11;;;;;;;16.40;9.30;;;;;;;-0.13;79.40;100319.77;105304;1259;61053;-69
2023/03/01 19:15:38;;;;;;;18.30;9.50;;;;;;;-0.18;79.40;100320.23;105630;1259;60946;-69
2023/03/01 19:18:08;;;;;;;19.70;9.40;;;;;;;-0.21;79.32;100324.30;105571;1259;72844;-71
2023/03/01 19:20:35;;;;;;;11.00;8.30;;;;;;;-0.22;79.39;100328.33;105788;1257;68772;-72
2023/03/01 19:23:05;;;;;;;11.60;7.30;;;;;;;-0.23;79.62;100329.09;105866;1260;74478;-74
2023/03/01 19:25:33;;;;;;;16.80;9.40;;;;;;;-0.22;79.49;100322.48;105764;1256;60216;-73
2023/03/01 19:27:59;;;;;;;14.70;7.80;;;;;;;-0.20;79.47;100321.60;105702;1257;59922;-71
2023/03/01 19:30:26;;;;;;;13.70;8.00;;;;;;;-0.21;79.40;100322.16;105773;1262;73268;-72
2023/03/01 19:32:53;;;;;;;18.80;9.10;;;;;;;-0.22;79.46;100325.00;105530;1258;68899;-71
2023/03/01 19:35:22;;;;;;;15.00;9.10;;;;;;;-0.24;79.30;100324.30;105810;1256;73496;-71
2023/03/01 19:37:49;;;;;;;14.10;8.20;;;;;;;-0.26;79.34;100329.65;105447;1263;61568;-72
2023/03/01 19:40:18;;;;;;;15.40;7.60;;;;;;;-0.29;79.25;100333.80;105468;1261;61003;-70
2023/03/01 19:42:45;;;;;;;13.10;8.30;;;;;;;-0.32;79.34;100333.94;105478;1257;71856;-71
2023/03/01 19:45:12;;;;;;;9.50;6.60;;;;;;;-0.35;79.40;100335.01;105423;1256;67964;-75
2023/03/01 19:47:40;;;;;;;11.10;6.80;;;;;;;-0.38;79.44;100335.82;105678;1258;72482;-74
2023/03/01 19:50:08;;;;;;;12.70;6.10;;;;;;;-0.39;79.31;100334.94;105670;1257;62223;-74
2023/03/01 19:52:39;;;;;;;9.20;5.90;;;;;;;-0.38;79.24;100330.53;105610;1257;60626;-73
2023/03/01 19:55:07;;;;;;;7.40;4.70;;;;;;;-0.34;79.16;100329.42;105711;1256;74997;-72
2023/03/01 19:57:36;;;;;;;6.70;5.20;;;;;;;-0.30;78.94;100335.47;105851;1256;67337;-72
2023/03/01 20:00:04;;;;;;;10.60;5.60;;;;;;;-0.26;78.51;100332.43;105552;1257;71258;-76
2023/03/01 20:02:38;;;;;;;10.40;6.30;;;;;;;-0.25;78.13;100335.48;105733;1256;59981;-75
2023/03/01 20:05:05;;;;;;;7.70;5.80;;;;;;;-0.25;77.73;100330.36;105607;1261;62047;-75
2023/03/01 20:07:34;;;;;;;7.90;4.80;;;;;;;-0.26;77.54;100334.02;105741;1257;72348;-77
2023/03/01 20:10:01;;;;;;;8.70;5.20;;;;;;;-0.27;77.28;100333.77;105726;1256;67340;-76
2023/03/01 20:12:28;;;;;;;9.80;5.90;;;;;;;-0.29;77.15;100332.19;105514;1256;73108;-77
2023/03/01 20:14:55;;;;;;;8.40;6.80;;;;;;;-0.31;76.97;100332.44;105617;1257;60661;-69
2023/03/01 20:17:27;;;;;;;13.60;6.20;;;;;;;-0.34;76.81;100330.45;105595;1256;61955;-70
2023/03/01 20:19:54;;;;;;;10.90;6.30;;;;;;;-0.36;76.87;100328.72;105916;1258;72645;-70
2023/03/01 20:22:24;;;;;;;11.30;6.30;;;;;;;-0.36;76.63;100330.54;105590;1257;70037;-74
2023/03/01 20:24:51;;;;;;;8.50;5.40;;;;;;;-0.36;76.55;100331.54;105646;1257;73190;-73
2023/03/01 20:27:20;;;;;;;9.90;5.50;;;;;;;-0.32;76.29;100328.20;105729;1256;60276;-75
2023/03/01 20:29:47;;;;;;;8.60;5.40;;;;;;;-0.30;76.03;100330.91;105655;1262;60134;-75
2023/03/01 20:32:14;;;;;;;9.70;6.80;;;;;;;-0.29;75.82;100322.94;105658;1262;73417;-79
2023/03/01 20:34:43;;;;;;;8.60;6.10;;;;;;;-0.28;75.74;100322.58;105398;1264;69070;-74
2023/03/01 20:37:10;;;;;;;10.60;6.20;;;;;;;-0.28;75.49;100320.33;105638;1257;72274;-73
2023/03/01 20:39:39;;;;;;;13.30;6.80;;;;;;;-0.28;75.35;100322.21;105533;1261;60032;-75
2023/03/01 20:42:06;;;;;;;12.20;5.60;;;;;;;-0.29;75.01;100317.92;105662;1257;62131;-73
2023/03/01 20:44:33;;;;;;;9.90;4.80;;;;;;;-0.30;74.92;100319.19;105516;1255;72035;-74
2023/03/01 20:47:00;;;;;;;9.30;5.30;;;;;;;-0.32;74.72;100316.52;105608;1262;67234;-75
2023/03/01 20:49:27;;;;;;;8.10;4.80;;;;;;;-0.32;74.70;100316.00;105491;1262;72353;-75
2023/03/01 20:51:54;;;;;;;7.40;4.20;;;;;;;-0.33;74.68;100312.89;105460;1262;60425;-77
2023/03/01 20:54:26;;;;;;;8.90;4.80;;;;;;;-0.31;74.65;100315.23;105677;1257;61726;-74
2023/03/01 20:56:54;;;;;;;6.40;5.00;;;;;;;-0.29;74.74;100309.99;105452;1257;74793;-70
2023/03/01 20:59:21;;;;;;;9.90;4.60;;;;;;;-0.24;74.71;100308.57;105553;1261;66611;-69
2023/03/01 21:01:49;;;;;;;7.30;4.40;;;;;;;-0.17;74.58;100308.39;105905;1257;72175;-69
2023/03/01 21:04:17;;;;;;;8.70;4.60;;;;;;;-0.12;74.31;100310.30;105374;1257;60396;-71
2023/03/01 21:06:45;;;;;;;6.40;4.60;;;;;;;-0.09;74.09;100308.31;105157;1256;1002938;-72
2023/03/01 21:09:13;;;;;;;9.10;5.10;;;;;;;-0.06;74.17;100308.25;105281;1258;60339;-70
2023/03/01 21:11:40;;;;;;;7.40;6.00;;;;;;;-0.06;74.12;100306.25;105452;1257;69575;-71
2023/03/01 21:14:08;;;;;;;10.10;4.60;;;;;;;-0.07;74.06;100308.65;105636;1257;72586;-70
2023/03/01 21:16:34;;;;;;;7.70;5.10;;;;;;;-0.07;74.15;100311.02;105770;1257;62304;-72
2023/03/01 21:19:03;;;;;;;7.60;5.40;;;;;;;-0.08;74.19;100310.55;105123;1257;61602;-76
2023/03/01 21:21:32;;;;;;;9.30;5.90;;;;;;;-0.09;74.17;100307.61;105674;1256;75449;-69
2023/03/01 21:24:03;;;;;;;8.50;4.30;;;;;;;-0.10;74.38;100306.24;105055;1257;67673;-69
2023/03/01 21:26:30;;;;;;;10.00;4.70;;;;;;;-0.12;74.57;100306.42;105614;1259;72005;-70
2023/03/01 21:29:02;;;;;;;8.30;4.40;;;;;;;-0.14;74.55;100306.76;105566;1257;61958;-70
2023/03/01 21:31:32;;;;;;;5.10;4.40;;;;;;;-0.14;74.80;100310.52;105533;1256;60417;-71
2023/03/01 21:34:02;;;;;;;7.20;4.10;;;;;;;-0.13;74.90;100312.11;105739;1257;72753;-71
2023/03/01 21:36:29;;;;;;;6.90;3.90;;;;;;;-0.09;74.94;100309.20;105446;1257;67609;-73
2023/03/01 21:38:59;;;;;;;4.70;3.50;;;;;;;-0.05;74.84;100305.46;105474;1261;74514;-70
2023/03/01 21:41:28;;;;;;;8.50;4.00;;;;;;;-0.04;74.94;100304.44;105475;1257;60888;-69
2023/03/01 21:43:56;;;;;;;7.80;7.00;;;;;;;-0.04;74.74;100307.08;105695;1257;60547;-71
2023/03/01 21:46:23;;;;;;;6.10;3.70;;;;;;;-0.04;74.85;100305.14;105716;1257;73629;-80
2023/03/01 21:48:53;;;;;;;7.10;3.80;;;;;;;-0.04;75.05;100305.82;105413;1256;69737;-70
2023/03/01 21:51:21;;;;;;;7.40;4.30;;;;;;;-0.04;75.11;100300.33;105190;1257;73286;-74
2023/03/01 21:53:49;;;;;;;6.80;4.40;;;;;;;-0.03;75.15;100303.48;105539;1256;60533;-73
2023/03/01 21:56:18;;;;;;;4.60;4.00;;;;;;;-0.05;75.53;100305.44;105797;1257;60778;-71
2023/03/01 21:58:44;;;;;;;11.70;5.70;;;;;;;-0.04;75.66;100307.11;105574;1256;73518;-74
2023/03/01 22:01:14;;;;;;;5.50;4.20;;;;;;;-0.03;75.68;100306.29;105550;1255;68889;-74
2023/03/01 22:03:44;;;;;;;6.90;3.80;;;;;;;0.00;75.82;100306.48;105453;1257;73704;-72
2023/03/01 22:06:17;;;;;;;8.10;4.70;;;;;;;0.06;76.03;100305.73;105822;1257;60492;-70
2023/03/01 22:08:48;;;;;;;7.10;3.60;;;;;;;0.12;76.07;100304.12;105530;1255;60691;-77
2023/03/01 22:11:17;;;;;;;7.00;3.90;;;;;;;0.18;76.09;100306.99;105883;1257;72773;-74
2023/03/01 22:13:48;;;;;;;9.60;4.60;;;;;;;0.22;75.90;100309.54;105828;1257;67913;-70
2023/03/01 22:16:15;;;;;;;8.30;4.30;;;;;;;0.26;75.67;100310.32;105445;1257;71808;-78
2023/03/01 22:18:42;;;;;;;8.00;3.90;;;;;;;0.28;75.61;100315.45;105609;1256;60450;-74
2023/03/01 22:21:09;;;;;;;14.10;5.80;;;;;;;0.30;75.75;100311.17;105785;1257;60451;-76
2023/03/01 22:23:37;;;;;;;5.40;3.70;;;;;;;0.31;75.57;100310.30;105824;1255;73184;-74
2023/03/01 22:26:04;;;;;;;8.50;4.60;;;;;;;0.31;75.73;100306.80;105907;1257;67868;-75
2023/03/01 22:28:30;;;;;;;9.00;4.50;;;;;;;0.30;75.82;100305.45;105501;1257;72534;-73
2023/03/01 22:30:58;;;;;;;6.70;4.30;;;;;;;0.30;75.80;100309.67;105575;1256;60665;-71
2023/03/01 22:33:25;;;;;;;7.10;4.00;;;;;;;0.30;75.83;100308.42;105818;1255;62192;-72
2023/03/01 22:35:55;;;;;;;4.60;3.20;;;;;;;0.31;75.81;100308.69;105590;1262;74679;-72
2023/03/01 22:38:23;;;;;;;6.90;4.00;;;;;;;0.33;75.96;100311.52;105360;1257;68152;-70
2023/03/01 22:40:57;;;;;;;4.90;3.60;;;;;;;0.36;76.02;100309.58;105749;1257;72976;-71
2023/03/01 22:43:24;;;;;;;5.30;3.50;;;;;;;0.42;76.04;100305.36;105662;1257;60466;-70
2023/03/01 22:45:51;;;;;;;10.90;4.30;;;;;;;0.48;75.98;100308.21;105567;1257;62436;-78
2023/03/01 22:48:21;;;;;;;5.40;3.10;;;;;;;0.55;75.93;100306.81;105545;1262;74713;-79
2023/03/01 22:50:48;;;;;;;9.10;4.50;;;;;;;0.57;75.61;100303.33;105885;1257;68713;-76
2023/03/01 22:53:15;;;;;;;10.60;5.10;;;;;;;0.58;75.56;100304.11;105659;1261;73252;-76
2023/03/01 22:55:43;;;;;;;9.10;5.60;;;;;;;0.58;75.42;100302.02;105854;1257;61328;-68
2023/03/01 22:58:11;;;;;;;8.40;5.50;;;;;;;0.57;75.33;100300.69;105341;1263;60376;-70
2023/03/01 23:00:38;;;;;;;7.20;3.60;;;;;;;0.56;75.30;100301.35;105299;1255;73928;-70
2023/03/01 23:03:11;;;;;;;8.00;4.80;;;;;;;0.55;75.58;100302.67;105550;1257;69644;-71
2023/03/01 23:05:40;;;;;;;10.80;4.00;;;;;;;0.55;75.48;100302.58;105299;1260;72966;-71
2023/03/01 23:08:07;;;;;;;5.40;4.00;;;;;;;0.54;75.55;100300.73;105566;1257;60479;-72
2023/03/01 23:10:39;;;;;;;6.60;3.80;;;;;;;0.55;75.38;100301.88;105747;1257;61157;-70
2023/03/01 23:13:06;;;;;;;8.10;4.50;;;;;;;0.56;75.69;100296.27;105976;1259;73332;-69
2023/03/01 23:15:36;;;;;;;9.50;5.40;;;;;;;0.60;75.66;100298.09;105392;1257;68468;-70
2023/03/01 23:18:03;;;;;;;8.20;4.30;;;;;;;0.65;75.74;100289.07;105398;1257;73508;-68
2023/03/01 23:20:34;;;;;;;6.90;4.60;;;;;;;0.69;75.58;100293.02;105532;1259;60383;-68
2023/03/01 23:23:02;;;;;;;9.30;4.30;;;;;;;0.71;75.45;100293.49;105417;1257;61155;-69
2023/03/01 23:25:29;;;;;;;8.70;5.30;;;;;;;0.71;75.31;100296.30;105474;1259;74169;-70
2023/03/01 23:27:56;;;;;;;8.70;5.10;;;;;;;0.71;75.28;100299.88;105442;1259;67463;-70
2023/03/01 23:30:22;;;;;;;8.60;4.00;;;;;;;0.70;75.33;100299.65;105459;1257;72720;-69
2023/03/01 23:32:52;;;;;;;11.10;5.10;;;;;;;0.68;75.51;100299.27;105313;1257;60388;-73
2023/03/01 23:35:19;;;;;;;8.00;4.70;;;;;;;0.66;75.42;100295.11;105555;1257;60488;-70
2023/03/01 23:37:46;;;;;;;6.30;4.50;;;;;;;0.65;75.64;100294.30;105744;1259;73432;-69
2023/03/01 23:40:13;;;;;;;10.30;5.70;;;;;;;0.64;75.77;100298.67;105724;1259;67726;-69
2023/03/01 23:42:40;;;;;;;8.80;4.70;;;;;;;0.63;75.95;100293.35;105200;1259;72340;-72
2023/03/01 23:45:08;;;;;;;9.30;6.10;;;;;;;0.64;76.17;100294.44;105529;1254;60573;-71
2023/03/01 23:47:36;;;;;;;11.80;6.30;;;;;;;0.67;76.26;100286.02;105749;1258;60363;-70
2023/03/01 23:50:04;;;;;;;11.00;6.00;;;;;;;0.70;76.34;100287.05;105393;1256;74390;-70
2023/03/01 23:52:37;;;;;;;7.30;5.80;;;;;;;0.72;76.34;100285.28;105493;1257;68291;-69
2023/03/01 23:55:04;;;;;;;8.20;5.30;;;;;;;0.71;76.37;100272.88;105480;1255;72441;-70
2023/03/01 23:57:32;;;;;;;8.50;6.10;;;;;;;0.68;76.49;100279.50;105824;1255;60575;-72
